Hlavní strana
METAR-TAF:

METAR-TAF

Letiště :

Rugby, Severní Dakota, Spojené státy americké

zeměpisná šířka: 48-23-25N, zeměpisná délka: 100-01-27W, výška: 472 m

Aktuální stav počasí

Zpráva byla vytvořena před 16 minutami, v 04:55 UTC
Jižní vítr 12 kt
Teplota -12°C
Vlhkost vzduchu 72%
Tlak 1019 hPa
Viditelnost: 16.1 km
Jasno

METAR: KRUG 210455Z AUTO 17012KT 10SM CLR M12/M16 A3009 RMK AO2

Čas: 23:11 (05:11 UTC)


TAF: chybějící

Stav a předpovědi počasí z více než 4 000 letišť (zprávy METAR a TAF).

Červené a žluté tečky na mapě představují dostupné meteorologické stanice.

Když kurzor umístíte na tečku, zobrazí se název stanice.

Pak kliknutím zobrazíte stav a předpověď počasí.

Chcete-li změnit mapu, kliknutím na zelené tlačítko se znaménkem +mapu přiblížíte, kliknutím na zelené tlačítko se znaménkem – mapu oddálíte a kliknutím na zelené šipky přejdete na sousední mapy.


METAR-TAF: